Skip Navigation Links
NOAA logo - Click to go to the NOAA homepage
NOAA's National Weather Service
Alaska Aviation Weather Unit
  NWS logo - Click to go to the NWS homepage
Left Navbar Graphic     12 AKDT = 20 GMT

   
NOAA is celebrating 200 years of science, service, and stewardship. Visit the NOAA 200th celebration Web site to learn more.
USA.gov is the U.S. Government's official Web portal to all Federal, state and local government Web resources and services.
Facebook
NWS on Facebook

Important Change Regarding the AAWU Web Presence

 

Over the last several months, the AAWU has been working to navigate its webpages to a nationally supported server. Security, as well as other needs, have necessitated the change.  We have been given an extension for the site changeover while we diligently work at addressing feedback received. As of July 14, 2017, aawu.arh.noaa.gov will be discontinued. The new AAWU web address is weather.gov/aawu. It is now live and will run in-parallel with the old site until it is discontinued on July 14, 2017. Please continue to send any feedback or questions regarding the new webpages to nws.ar.aawu.webauthors@noaa.gov.  Thank you for your patience during this time of transition.
AAWU Home :: Display TAF Add Bookmark
TAF CYPR 251838Z 2519/2607 17005KT P6SM OVC050
    FM252200 17005KT P6SM SCT020 OVC040 TEMPO 2522/2607 P6SM -SHRA
     BKN020 OVC040
     BECMG 2602/2604 14008KT
    RMK FCST BASED ON AUTO OBS. NXT FCST BY 260100Z=

METAR CYPR 251400Z AUTO 08004KT 060V120 9SM OVC055 11/11 A3008 RMK SLP188= METAR CYPR 251500Z AUTO 08004KT 9SM OVC050 12/12 A3007 RMK SLP186= METAR CYPR 251600Z AUTO VRB02KT 9SM OVC055 13/12 A3008 RMK SLP187= METAR CYPR 251700Z AUTO 16004KT 140V200 9SM OVC065 14/12 A3008 RMK SLP187= METAR CYPR 251800Z AUTO 17005KT 140V200 9SM OVC055 16/12 A3007 RMK SLP185= METAR CYPR 251900Z AUTO 20004KT 140V230 9SM OVC055 16/12 A3006 RMK SLP182= METAR CYPR 252000Z AUTO 20004KT 160V240 9SM BKN046 OVC080 18/11 A3006 RMK SLP181 DENSITY ALT 200FT=
 Alaska TAF Map

NOAA's National Weather Service
Alaska Aviation Weather Unit
6930 Sand Lake Road
Anchorage, AK 99502-1845
Disclaimer
Credits
Glossary
Privacy Policy
About Us
Career Opportunities
Contact AAWU Internet Services Site last modified: April, 17th 2012